sensor_id;sensor_type;location;lat;lon;timestamp;temperature;humidity
18252;DHT22;26917;52.328;20.878;2022-12-18T00:00:57;-3.90;99.90
18252;DHT22;26917;52.328;20.878;2022-12-18T00:03:35;-4.00;99.90
18252;DHT22;26917;52.328;20.878;2022-12-18T00:06:04;-4.20;99.90
18252;DHT22;26917;52.328;20.878;2022-12-18T00:08:34;-4.40;99.90
18252;DHT22;26917;52.328;20.878;2022-12-18T00:11:05;-4.40;99.90
18252;DHT22;26917;52.328;20.878;2022-12-18T00:13:34;-4.30;99.90
18252;DHT22;26917;52.328;20.878;2022-12-18T00:16:05;-4.10;99.90
18252;DHT22;26917;52.328;20.878;2022-12-18T00:18:51;-4.40;99.90
18252;DHT22;26917;52.328;20.878;2022-12-18T00:21:21;-4.40;99.90
18252;DHT22;26917;52.328;20.878;2022-12-18T00:23:54;-4.40;99.90
18252;DHT22;26917;52.328;20.878;2022-12-18T00:26:25;-3.90;99.90
18252;DHT22;26917;52.328;20.878;2022-12-18T00:28:59;-4.20;99.90
18252;DHT22;26917;52.328;20.878;2022-12-18T00:31:30;-4.40;99.90
18252;DHT22;26917;52.328;20.878;2022-12-18T00:34:16;-4.40;99.90
18252;DHT22;26917;52.328;20.878;2022-12-18T00:36:47;-3.80;99.90
18252;DHT22;26917;52.328;20.878;2022-12-18T00:39:21;-4.40;99.90
18252;DHT22;26917;52.328;20.878;2022-12-18T00:41:50;-4.30;99.90
18252;DHT22;26917;52.328;20.878;2022-12-18T00:44:53;-4.30;99.90
18252;DHT22;26917;52.328;20.878;2022-12-18T00:47:26;-4.30;99.90
18252;DHT22;26917;52.328;20.878;2022-12-18T00:49:57;-4.30;99.90
18252;DHT22;26917;52.328;20.878;2022-12-18T00:52:35;-4.20;99.90
18252;DHT22;26917;52.328;20.878;2022-12-18T00:55:21;-4.20;99.90
18252;DHT22;26917;52.328;20.878;2022-12-18T00:57:51;-4.20;99.90
18252;DHT22;26917;52.328;20.878;2022-12-18T01:00:20;-3.90;99.90
18252;DHT22;26917;52.328;20.878;2022-12-18T01:02:49;-4.20;99.90
18252;DHT22;26917;52.328;20.878;2022-12-18T01:05:19;-4.30;99.90
18252;DHT22;26917;52.328;20.878;2022-12-18T01:07:47;-4.30;99.90
18252;DHT22;26917;52.328;20.878;2022-12-18T01:10:16;-4.00;99.90
18252;DHT22;26917;52.328;20.878;2022-12-18T01:12:45;-4.30;99.90
18252;DHT22;26917;52.328;20.878;2022-12-18T01:15:15;-4.10;99.90
18252;DHT22;26917;52.328;20.878;2022-12-18T01:17:44;-4.30;99.90
18252;DHT22;26917;52.328;20.878;2022-12-18T01:20:15;-3.90;99.90
18252;DHT22;26917;52.328;20.878;2022-12-18T01:22:54;-4.30;99.90
18252;DHT22;26917;52.328;20.878;2022-12-18T01:25:23;-4.10;99.90
18252;DHT22;26917;52.328;20.878;2022-12-18T01:27:52;-4.20;99.90
18252;DHT22;26917;52.328;20.878;2022-12-18T01:30:20;-4.10;99.90
18252;DHT22;26917;52.328;20.878;2022-12-18T01:32:49;-4.20;99.90
18252;DHT22;26917;52.328;20.878;2022-12-18T01:35:17;-4.20;99.90
18252;DHT22;26917;52.328;20.878;2022-12-18T01:37:55;-4.00;99.90
18252;DHT22;26917;52.328;20.878;2022-12-18T01:40:24;-4.20;99.90
18252;DHT22;26917;52.328;20.878;2022-12-18T01:42:56;-3.90;99.90
18252;DHT22;26917;52.328;20.878;2022-12-18T01:45:27;-3.60;99.90
18252;DHT22;26917;52.328;20.878;2022-12-18T01:47:57;-4.10;99.90
18252;DHT22;26917;52.328;20.878;2022-12-18T01:50:31;-4.20;99.90
18252;DHT22;26917;52.328;20.878;2022-12-18T01:53:10;-3.00;99.90
18252;DHT22;26917;52.328;20.878;2022-12-18T01:55:43;-3.20;99.90
18252;DHT22;26917;52.328;20.878;2022-12-18T01:58:13;-3.00;99.90
18252;DHT22;26917;52.328;20.878;2022-12-18T02:00:42;-4.10;99.90
18252;DHT22;26917;52.328;20.878;2022-12-18T02:03:17;-4.30;99.90
18252;DHT22;26917;52.328;20.878;2022-12-18T02:05:54;-3.80;99.90
18252;DHT22;26917;52.328;20.878;2022-12-18T02:08:35;-3.80;99.90
18252;DHT22;26917;52.328;20.878;2022-12-18T02:11:10;-3.90;99.90
18252;DHT22;26917;52.328;20.878;2022-12-18T02:13:43;-4.20;99.90
18252;DHT22;26917;52.328;20.878;2022-12-18T02:16:23;-3.80;99.90
18252;DHT22;26917;52.328;20.878;2022-12-18T02:19:00;-3.40;99.90
18252;DHT22;26917;52.328;20.878;2022-12-18T02:21:40;-3.90;99.90
18252;DHT22;26917;52.328;20.878;2022-12-18T02:24:32;-3.90;99.90
18252;DHT22;26917;52.328;20.878;2022-12-18T02:27:10;-3.80;99.90
18252;DHT22;26917;52.328;20.878;2022-12-18T02:29:42;-4.10;99.90
18252;DHT22;26917;52.328;20.878;2022-12-18T02:32:15;-3.50;99.90
18252;DHT22;26917;52.328;20.878;2022-12-18T02:34:46;-4.10;99.90
18252;DHT22;26917;52.328;20.878;2022-12-18T02:37:17;-3.90;99.90
18252;DHT22;26917;52.328;20.878;2022-12-18T02:39:49;-4.00;99.90
18252;DHT22;26917;52.328;20.878;2022-12-18T02:42:38;-3.80;99.90
18252;DHT22;26917;52.328;20.878;2022-12-18T02:45:09;-3.90;99.90
18252;DHT22;26917;52.328;20.878;2022-12-18T02:47:40;-4.10;99.90
18252;DHT22;26917;52.328;20.878;2022-12-18T02:50:19;-3.80;99.90
18252;DHT22;26917;52.328;20.878;2022-12-18T02:53:01;-3.80;99.90
18252;DHT22;26917;52.328;20.878;2022-12-18T02:55:44;-4.10;99.90
18252;DHT22;26917;52.328;20.878;2022-12-18T02:58:37;-4.00;99.90
18252;DHT22;26917;52.328;20.878;2022-12-18T03:01:26;-4.20;99.90
18252;DHT22;26917;52.328;20.878;2022-12-18T03:04:02;-4.20;99.90
18252;DHT22;26917;52.328;20.878;2022-12-18T03:06:38;-4.20;99.90
18252;DHT22;26917;52.328;20.878;2022-12-18T03:09:10;-4.00;99.90
18252;DHT22;26917;52.328;20.878;2022-12-18T03:11:43;-4.20;99.90
18252;DHT22;26917;52.328;20.878;2022-12-18T03:15:03;-3.00;99.90
18252;DHT22;26917;52.328;20.878;2022-12-18T03:17:54;-4.10;99.90
18252;DHT22;26917;52.328;20.878;2022-12-18T03:20:32;-4.00;99.90
18252;DHT22;26917;52.328;20.878;2022-12-18T03:23:06;-4.60;99.90
18252;DHT22;26917;52.328;20.878;2022-12-18T03:25:40;-3.60;99.90
18252;DHT22;26917;52.328;20.878;2022-12-18T03:28:13;-4.10;99.90
18252;DHT22;26917;52.328;20.878;2022-12-18T03:30:49;-4.00;99.90
18252;DHT22;26917;52.328;20.878;2022-12-18T03:33:24;-3.00;99.90
18252;DHT22;26917;52.328;20.878;2022-12-18T03:35:55;-3.50;99.90
18252;DHT22;26917;52.328;20.878;2022-12-18T03:38:24;-3.90;99.90
18252;DHT22;26917;52.328;20.878;2022-12-18T03:40:59;-4.00;99.90
18252;DHT22;26917;52.328;20.878;2022-12-18T03:43:46;-3.90;99.90
18252;DHT22;26917;52.328;20.878;2022-12-18T03:46:26;-3.70;99.90
18252;DHT22;26917;52.328;20.878;2022-12-18T03:49:00;-4.10;99.90
18252;DHT22;26917;52.328;20.878;2022-12-18T03:51:36;-4.10;99.90
18252;DHT22;26917;52.328;20.878;2022-12-18T03:54:09;-4.30;99.90
18252;DHT22;26917;52.328;20.878;2022-12-18T03:56:47;-4.10;99.90
18252;DHT22;26917;52.328;20.878;2022-12-18T03:59:21;-3.50;99.90
18252;DHT22;26917;52.328;20.878;2022-12-18T04:01:54;-4.20;99.90
18252;DHT22;26917;52.328;20.878;2022-12-18T04:04:30;-4.10;99.90
18252;DHT22;26917;52.328;20.878;2022-12-18T04:07:03;-4.10;99.90
18252;DHT22;26917;52.328;20.878;2022-12-18T04:09:35;-4.10;99.90
18252;DHT22;26917;52.328;20.878;2022-12-18T04:12:06;-4.10;99.90
18252;DHT22;26917;52.328;20.878;2022-12-18T04:14:35;-4.10;99.90
18252;DHT22;26917;52.328;20.878;2022-12-18T04:17:08;-4.10;99.90
18252;DHT22;26917;52.328;20.878;2022-12-18T04:19:36;-4.10;99.90
18252;DHT22;26917;52.328;20.878;2022-12-18T04:22:09;-4.10;99.90
18252;DHT22;26917;52.328;20.878;2022-12-18T04:24:43;-4.30;99.90
18252;DHT22;26917;52.328;20.878;2022-12-18T04:27:23;-4.00;99.90
18252;DHT22;26917;52.328;20.878;2022-12-18T04:29:52;-4.20;99.90
18252;DHT22;26917;52.328;20.878;2022-12-18T04:32:24;-4.20;99.90
18252;DHT22;26917;52.328;20.878;2022-12-18T04:34:53;-4.30;99.90
18252;DHT22;26917;52.328;20.878;2022-12-18T04:37:22;-4.20;99.90
18252;DHT22;26917;52.328;20.878;2022-12-18T04:39:51;-4.10;99.90
18252;DHT22;26917;52.328;20.878;2022-12-18T04:42:27;-4.30;99.90
18252;DHT22;26917;52.328;20.878;2022-12-18T04:44:55;-3.60;99.90
18252;DHT22;26917;52.328;20.878;2022-12-18T04:47:25;-4.00;99.90
18252;DHT22;26917;52.328;20.878;2022-12-18T04:49:54;-4.30;99.90
18252;DHT22;26917;52.328;20.878;2022-12-18T04:52:23;-4.20;99.90
18252;DHT22;26917;52.328;20.878;2022-12-18T04:54:51;-3.80;99.90
18252;DHT22;26917;52.328;20.878;2022-12-18T04:57:22;-3.80;99.90
18252;DHT22;26917;52.328;20.878;2022-12-18T04:59:53;-4.50;99.90
18252;DHT22;26917;52.328;20.878;2022-12-18T05:02:22;-4.30;99.90
18252;DHT22;26917;52.328;20.878;2022-12-18T05:04:52;-4.20;99.90
18252;DHT22;26917;52.328;20.878;2022-12-18T05:07:21;-4.50;99.90
18252;DHT22;26917;52.328;20.878;2022-12-18T05:09:51;-4.50;99.90
18252;DHT22;26917;52.328;20.878;2022-12-18T05:12:20;-4.20;99.90
18252;DHT22;26917;52.328;20.878;2022-12-18T05:14:53;-4.50;99.90
18252;DHT22;26917;52.328;20.878;2022-12-18T05:17:25;-4.30;99.90
18252;DHT22;26917;52.328;20.878;2022-12-18T05:20:10;-4.30;99.90
18252;DHT22;26917;52.328;20.878;2022-12-18T05:22:39;-4.60;99.90
18252;DHT22;26917;52.328;20.878;2022-12-18T05:25:08;-4.50;99.90
18252;DHT22;26917;52.328;20.878;2022-12-18T05:27:37;-4.60;99.90
18252;DHT22;26917;52.328;20.878;2022-12-18T05:30:06;-4.10;99.90
18252;DHT22;26917;52.328;20.878;2022-12-18T05:32:35;-4.70;99.90
18252;DHT22;26917;52.328;20.878;2022-12-18T05:35:17;-4.60;99.90
18252;DHT22;26917;52.328;20.878;2022-12-18T05:37:46;-4.50;99.90
18252;DHT22;26917;52.328;20.878;2022-12-18T05:40:15;-4.80;99.90
18252;DHT22;26917;52.328;20.878;2022-12-18T05:42:44;-4.70;99.90
18252;DHT22;26917;52.328;20.878;2022-12-18T05:45:12;-4.40;99.90
18252;DHT22;26917;52.328;20.878;2022-12-18T05:47:40;-4.90;99.90
18252;DHT22;26917;52.328;20.878;2022-12-18T05:50:25;-4.90;99.90
18252;DHT22;26917;52.328;20.878;2022-12-18T05:53:03;-4.50;99.90
18252;DHT22;26917;52.328;20.878;2022-12-18T05:55:35;-4.90;99.90
18252;DHT22;26917;52.328;20.878;2022-12-18T05:58:05;-4.90;99.90
18252;DHT22;26917;52.328;20.878;2022-12-18T06:00:36;-4.80;99.90
18252;DHT22;26917;52.328;20.878;2022-12-18T06:03:07;-4.90;99.90
18252;DHT22;26917;52.328;20.878;2022-12-18T06:05:43;-4.90;99.90
18252;DHT22;26917;52.328;20.878;2022-12-18T06:08:15;-4.80;99.90
18252;DHT22;26917;52.328;20.878;2022-12-18T06:11:03;-4.70;99.90
18252;DHT22;26917;52.328;20.878;2022-12-18T06:13:32;-4.80;99.90
18252;DHT22;26917;52.328;20.878;2022-12-18T06:16:02;-3.70;99.90
18252;DHT22;26917;52.328;20.878;2022-12-18T06:18:31;-4.80;99.90
18252;DHT22;26917;52.328;20.878;2022-12-18T06:21:04;-4.80;99.90
18252;DHT22;26917;52.328;20.878;2022-12-18T06:23:32;-4.70;99.90
18252;DHT22;26917;52.328;20.878;2022-12-18T06:26:04;-4.70;99.90
18252;DHT22;26917;52.328;20.878;2022-12-18T06:28:33;-4.70;99.90
18252;DHT22;26917;52.328;20.878;2022-12-18T06:31:04;-4.70;99.90
18252;DHT22;26917;52.328;20.878;2022-12-18T06:33:34;-4.70;99.90
18252;DHT22;26917;52.328;20.878;2022-12-18T06:36:13;-4.70;99.90
18252;DHT22;26917;52.328;20.878;2022-12-18T06:38:44;-4.70;99.90
18252;DHT22;26917;52.328;20.878;2022-12-18T06:41:15;-4.70;99.90
18252;DHT22;26917;52.328;20.878;2022-12-18T06:43:46;-4.80;99.90
18252;DHT22;26917;52.328;20.878;2022-12-18T06:46:15;-4.60;99.90
18252;DHT22;26917;52.328;20.878;2022-12-18T06:48:47;-4.90;99.90
18252;DHT22;26917;52.328;20.878;2022-12-18T06:51:40;-4.40;99.90
18252;DHT22;26917;52.328;20.878;2022-12-18T06:54:11;-4.70;99.90
18252;DHT22;26917;52.328;20.878;2022-12-18T06:56:40;-4.50;99.90
18252;DHT22;26917;52.328;20.878;2022-12-18T06:59:08;-4.10;99.90
18252;DHT22;26917;52.328;20.878;2022-12-18T07:01:37;-4.60;99.90
18252;DHT22;26917;52.328;20.878;2022-12-18T07:04:06;-3.30;99.90
18252;DHT22;26917;52.328;20.878;2022-12-18T07:06:34;-4.50;99.90
18252;DHT22;26917;52.328;20.878;2022-12-18T07:09:04;-4.60;99.90
18252;DHT22;26917;52.328;20.878;2022-12-18T07:11:33;-4.50;99.90
18252;DHT22;26917;52.328;20.878;2022-12-18T07:14:02;-4.80;99.90
18252;DHT22;26917;52.328;20.878;2022-12-18T07:16:31;-4.60;99.90
18252;DHT22;26917;52.328;20.878;2022-12-18T07:18:59;-4.30;99.90
18252;DHT22;26917;52.328;20.878;2022-12-18T07:21:29;-4.60;99.90
18252;DHT22;26917;52.328;20.878;2022-12-18T07:23:58;-4.60;99.90
18252;DHT22;26917;52.328;20.878;2022-12-18T07:26:44;-4.30;99.90
18252;DHT22;26917;52.328;20.878;2022-12-18T07:29:13;-4.50;99.90
18252;DHT22;26917;52.328;20.878;2022-12-18T07:31:42;-4.50;99.90
18252;DHT22;26917;52.328;20.878;2022-12-18T07:34:11;-4.50;99.90
18252;DHT22;26917;52.328;20.878;2022-12-18T07:36:43;-4.60;99.90
18252;DHT22;26917;52.328;20.878;2022-12-18T07:39:11;-4.30;99.90
18252;DHT22;26917;52.328;20.878;2022-12-18T07:41:41;-4.60;99.90
18252;DHT22;26917;52.328;20.878;2022-12-18T07:44:32;-4.70;99.90
18252;DHT22;26917;52.328;20.878;2022-12-18T07:47:00;-4.60;99.90
18252;DHT22;26917;52.328;20.878;2022-12-18T07:49:35;-4.50;99.90
18252;DHT22;26917;52.328;20.878;2022-12-18T07:52:04;-4.70;99.90
18252;DHT22;26917;52.328;20.878;2022-12-18T07:54:33;-4.10;99.90
18252;DHT22;26917;52.328;20.878;2022-12-18T07:57:01;-4.60;99.90
18252;DHT22;26917;52.328;20.878;2022-12-18T07:59:48;-4.50;99.90
18252;DHT22;26917;52.328;20.878;2022-12-18T08:02:17;-4.20;99.90
18252;DHT22;26917;52.328;20.878;2022-12-18T08:04:47;-4.60;99.90
18252;DHT22;26917;52.328;20.878;2022-12-18T08:07:17;-3.70;99.90
18252;DHT22;26917;52.328;20.878;2022-12-18T08:09:46;-4.50;99.90
18252;DHT22;26917;52.328;20.878;2022-12-18T08:12:14;-4.20;99.90
18252;DHT22;26917;52.328;20.878;2022-12-18T08:14:42;-4.40;99.90
18252;DHT22;26917;52.328;20.878;2022-12-18T08:17:12;-4.50;99.90
18252;DHT22;26917;52.328;20.878;2022-12-18T08:19:44;-4.50;99.90
18252;DHT22;26917;52.328;20.878;2022-12-18T08:22:12;-4.50;99.90
18252;DHT22;26917;52.328;20.878;2022-12-18T08:24:40;-4.70;99.90
18252;DHT22;26917;52.328;20.878;2022-12-18T08:27:09;-4.50;99.90
18252;DHT22;26917;52.328;20.878;2022-12-18T08:29:58;-4.60;99.90
18252;DHT22;26917;52.328;20.878;2022-12-18T08:32:28;-4.10;99.90
18252;DHT22;26917;52.328;20.878;2022-12-18T08:34:58;-4.60;99.90
18252;DHT22;26917;52.328;20.878;2022-12-18T08:37:32;-4.50;99.90
18252;DHT22;26917;52.328;20.878;2022-12-18T08:40:01;-4.50;99.90
18252;DHT22;26917;52.328;20.878;2022-12-18T08:42:33;-4.60;99.90
18252;DHT22;26917;52.328;20.878;2022-12-18T08:45:33;-4.70;99.90
18252;DHT22;26917;52.328;20.878;2022-12-18T08:48:04;-4.60;99.90
18252;DHT22;26917;52.328;20.878;2022-12-18T08:50:32;-4.60;99.90
18252;DHT22;26917;52.328;20.878;2022-12-18T08:53:01;-4.60;99.90
18252;DHT22;26917;52.328;20.878;2022-12-18T08:55:30;-4.50;99.90
18252;DHT22;26917;52.328;20.878;2022-12-18T08:57:59;-4.50;99.90
18252;DHT22;26917;52.328;20.878;2022-12-18T09:00:27;-4.00;99.90
18252;DHT22;26917;52.328;20.878;2022-12-18T09:02:56;-4.30;99.90
18252;DHT22;26917;52.328;20.878;2022-12-18T09:05:36;-4.40;99.90
18252;DHT22;26917;52.328;20.878;2022-12-18T09:08:05;-4.40;99.90
18252;DHT22;26917;52.328;20.878;2022-12-18T09:10:33;-4.50;99.90
18252;DHT22;26917;52.328;20.878;2022-12-18T09:13:09;-4.20;99.90
18252;DHT22;26917;52.328;20.878;2022-12-18T09:15:40;-4.40;99.90
18252;DHT22;26917;52.328;20.878;2022-12-18T09:18:10;-4.40;99.90
18252;DHT22;26917;52.328;20.878;2022-12-18T09:20:45;-3.50;99.90
18252;DHT22;26917;52.328;20.878;2022-12-18T09:23:14;-4.40;99.90
18252;DHT22;26917;52.328;20.878;2022-12-18T09:25:43;-4.40;99.90
18252;DHT22;26917;52.328;20.878;2022-12-18T09:28:14;-3.90;99.90
18252;DHT22;26917;52.328;20.878;2022-12-18T09:30:45;-4.40;99.90
18252;DHT22;26917;52.328;20.878;2022-12-18T09:33:14;-4.50;99.90
18252;DHT22;26917;52.328;20.878;2022-12-18T09:35:45;-4.10;99.90
18252;DHT22;26917;52.328;20.878;2022-12-18T09:38:15;-4.40;99.90
18252;DHT22;26917;52.328;20.878;2022-12-18T09:40:49;-4.00;99.90
18252;DHT22;26917;52.328;20.878;2022-12-18T09:43:23;-4.30;99.90
18252;DHT22;26917;52.328;20.878;2022-12-18T09:45:56;-4.90;99.90
18252;DHT22;26917;52.328;20.878;2022-12-18T09:48:34;-4.10;99.90
18252;DHT22;26917;52.328;20.878;2022-12-18T09:51:13;-4.30;99.90
18252;DHT22;26917;52.328;20.878;2022-12-18T09:53:47;-4.00;99.90
18252;DHT22;26917;52.328;20.878;2022-12-18T09:56:19;-4.20;99.90
18252;DHT22;26917;52.328;20.878;2022-12-18T09:58:53;-4.20;99.90
18252;DHT22;26917;52.328;20.878;2022-12-18T10:01:32;-4.30;99.90
18252;DHT22;26917;52.328;20.878;2022-12-18T10:04:10;-4.30;99.90
18252;DHT22;26917;52.328;20.878;2022-12-18T10:06:52;-4.30;99.90
18252;DHT22;26917;52.328;20.878;2022-12-18T10:09:28;-4.90;99.90
18252;DHT22;26917;52.328;20.878;2022-12-18T10:12:08;-4.20;99.90
18252;DHT22;26917;52.328;20.878;2022-12-18T10:15:00;-4.20;99.90
18252;DHT22;26917;52.328;20.878;2022-12-18T10:17:35;-3.90;99.90
18252;DHT22;26917;52.328;20.878;2022-12-18T10:20:12;-3.90;99.90
18252;DHT22;26917;52.328;20.878;2022-12-18T10:25:52;-3.80;99.90
18252;DHT22;26917;52.328;20.878;2022-12-18T10:28:37;-3.90;99.90
18252;DHT22;26917;52.328;20.878;2022-12-18T10:31:28;-4.20;99.90
18252;DHT22;26917;52.328;20.878;2022-12-18T10:34:12;-4.20;99.90
18252;DHT22;26917;52.328;20.878;2022-12-18T10:37:14;-4.20;99.90
18252;DHT22;26917;52.328;20.878;2022-12-18T10:40:10;-4.10;99.90
18252;DHT22;26917;52.328;20.878;2022-12-18T10:43:14;-4.20;99.90
18252;DHT22;26917;52.328;20.878;2022-12-18T10:48:56;-3.90;99.90
18252;DHT22;26917;52.328;20.878;2022-12-18T10:51:39;-3.90;99.90
18252;DHT22;26917;52.328;20.878;2022-12-18T10:54:15;-4.10;99.90
18252;DHT22;26917;52.328;20.878;2022-12-18T10:57:15;-3.30;99.90
18252;DHT22;26917;52.328;20.878;2022-12-18T11:00:19;-4.00;99.90
18252;DHT22;26917;52.328;20.878;2022-12-18T11:03:31;-4.00;99.90
18252;DHT22;26917;52.328;20.878;2022-12-18T11:06:06;-3.60;99.90
18252;DHT22;26917;52.328;20.878;2022-12-18T11:08:41;-3.90;99.90
18252;DHT22;26917;52.328;20.878;2022-12-18T11:11:20;-3.80;99.90
18252;DHT22;26917;52.328;20.878;2022-12-18T11:14:03;-3.90;99.90
18252;DHT22;26917;52.328;20.878;2022-12-18T11:16:42;-3.90;99.90
18252;DHT22;26917;52.328;20.878;2022-12-18T11:19:36;-3.80;99.90
18252;DHT22;26917;52.328;20.878;2022-12-18T11:22:37;-3.80;99.90
18252;DHT22;26917;52.328;20.878;2022-12-18T11:25:19;-3.80;99.90
18252;DHT22;26917;52.328;20.878;2022-12-18T11:31:24;-3.70;99.90
18252;DHT22;26917;52.328;20.878;2022-12-18T11:34:07;-3.70;99.90
18252;DHT22;26917;52.328;20.878;2022-12-18T11:37:19;-3.70;99.90
18252;DHT22;26917;52.328;20.878;2022-12-18T11:40:01;-3.70;99.90
18252;DHT22;26917;52.328;20.878;2022-12-18T11:42:38;-3.60;99.90
18252;DHT22;26917;52.328;20.878;2022-12-18T11:45:27;-3.40;99.90
18252;DHT22;26917;52.328;20.878;2022-12-18T11:48:18;-3.60;99.90
18252;DHT22;26917;52.328;20.878;2022-12-18T11:51:14;-3.30;99.90
18252;DHT22;26917;52.328;20.878;2022-12-18T11:53:53;-3.60;99.90
18252;DHT22;26917;52.328;20.878;2022-12-18T11:56:38;-3.40;99.90
18252;DHT22;26917;52.328;20.878;2022-12-18T12:00:42;-3.60;99.90
18252;DHT22;26917;52.328;20.878;2022-12-18T12:06:57;-3.40;99.90
18252;DHT22;26917;52.328;20.878;2022-12-18T12:09:43;-3.40;99.90
18252;DHT22;26917;52.328;20.878;2022-12-18T12:13:27;-3.40;99.90
18252;DHT22;26917;52.328;20.878;2022-12-18T12:20:25;-3.40;99.90
18252;DHT22;26917;52.328;20.878;2022-12-18T12:23:23;-3.30;99.90
18252;DHT22;26917;52.328;20.878;2022-12-18T12:26:21;-3.30;99.90
18252;DHT22;26917;52.328;20.878;2022-12-18T12:29:12;-3.50;99.90
18252;DHT22;26917;52.328;20.878;2022-12-18T12:32:07;-2.80;99.90
18252;DHT22;26917;52.328;20.878;2022-12-18T12:35:08;-3.40;99.90
18252;DHT22;26917;52.328;20.878;2022-12-18T12:38:12;-3.40;99.90
18252;DHT22;26917;52.328;20.878;2022-12-18T12:40:59;-3.30;99.90
18252;DHT22;26917;52.328;20.878;2022-12-18T12:47:08;-2.70;99.90
18252;DHT22;26917;52.328;20.878;2022-12-18T12:49:46;-3.30;99.90
18252;DHT22;26917;52.328;20.878;2022-12-18T12:52:28;-3.20;99.90
18252;DHT22;26917;52.328;20.878;2022-12-18T12:55:14;-3.40;99.90
18252;DHT22;26917;52.328;20.878;2022-12-18T12:57:56;-3.10;99.90
18252;DHT22;26917;52.328;20.878;2022-12-18T13:00:31;-3.20;99.90
18252;DHT22;26917;52.328;20.878;2022-12-18T13:03:23;-3.40;99.90
18252;DHT22;26917;52.328;20.878;2022-12-18T13:06:29;-3.10;99.90
18252;DHT22;26917;52.328;20.878;2022-12-18T13:09:05;-3.40;99.90
18252;DHT22;26917;52.328;20.878;2022-12-18T13:11:53;-3.50;99.90
18252;DHT22;26917;52.328;20.878;2022-12-18T13:15:12;-3.30;99.90
18252;DHT22;26917;52.328;20.878;2022-12-18T13:18:28;-3.50;99.90
18252;DHT22;26917;52.328;20.878;2022-12-18T13:21:10;-3.50;99.90
18252;DHT22;26917;52.328;20.878;2022-12-18T13:23:56;-3.50;99.90
18252;DHT22;26917;52.328;20.878;2022-12-18T13:26:32;-3.50;99.90
18252;DHT22;26917;52.328;20.878;2022-12-18T13:29:04;-3.00;99.90
18252;DHT22;26917;52.328;20.878;2022-12-18T13:32:01;-3.60;99.90
18252;DHT22;26917;52.328;20.878;2022-12-18T13:34:53;-3.50;99.90
18252;DHT22;26917;52.328;20.878;2022-12-18T13:37:51;-3.60;99.90
18252;DHT22;26917;52.328;20.878;2022-12-18T13:43:31;-3.70;99.90
18252;DHT22;26917;52.328;20.878;2022-12-18T13:46:05;-3.70;99.90
18252;DHT22;26917;52.328;20.878;2022-12-18T13:48:38;-3.70;99.90
18252;DHT22;26917;52.328;20.878;2022-12-18T13:51:09;-3.90;99.90
18252;DHT22;26917;52.328;20.878;2022-12-18T13:53:46;-3.80;99.90
18252;DHT22;26917;52.328;20.878;2022-12-18T13:56:27;-3.80;99.90
18252;DHT22;26917;52.328;20.878;2022-12-18T13:59:18;-3.60;99.90
18252;DHT22;26917;52.328;20.878;2022-12-18T14:02:13;-3.80;99.90
18252;DHT22;26917;52.328;20.878;2022-12-18T14:05:01;-3.70;99.90
18252;DHT22;26917;52.328;20.878;2022-12-18T14:08:52;-3.70;99.90
18252;DHT22;26917;52.328;20.878;2022-12-18T14:12:44;-3.70;99.90
18252;DHT22;26917;52.328;20.878;2022-12-18T14:16:15;-3.60;99.90
18252;DHT22;26917;52.328;20.878;2022-12-18T14:19:15;-3.60;99.90
18252;DHT22;26917;52.328;20.878;2022-12-18T14:25:49;-3.60;99.90
18252;DHT22;26917;52.328;20.878;2022-12-18T14:28:27;-3.60;99.90
18252;DHT22;26917;52.328;20.878;2022-12-18T14:30:59;-3.90;99.90
18252;DHT22;26917;52.328;20.878;2022-12-18T14:33:49;-3.60;99.90
18252;DHT22;26917;52.328;20.878;2022-12-18T14:39:59;-3.60;99.90
18252;DHT22;26917;52.328;20.878;2022-12-18T14:42:39;-3.40;99.90
18252;DHT22;26917;52.328;20.878;2022-12-18T14:45:41;-3.20;99.90
18252;DHT22;26917;52.328;20.878;2022-12-18T14:48:19;-3.90;99.90
18252;DHT22;26917;52.328;20.878;2022-12-18T14:54:48;-3.90;99.90
18252;DHT22;26917;52.328;20.878;2022-12-18T14:57:45;-4.80;99.90
18252;DHT22;26917;52.328;20.878;2022-12-18T15:00:28;-3.90;99.90
18252;DHT22;26917;52.328;20.878;2022-12-18T15:03:42;-4.00;99.90
18252;DHT22;26917;52.328;20.878;2022-12-18T15:07:12;-3.80;99.90
18252;DHT22;26917;52.328;20.878;2022-12-18T15:10:21;-3.80;99.90
18252;DHT22;26917;52.328;20.878;2022-12-18T15:13:21;-3.70;99.90
18252;DHT22;26917;52.328;20.878;2022-12-18T15:15:55;-3.60;99.90
18252;DHT22;26917;52.328;20.878;2022-12-18T15:18:32;-3.80;99.90
18252;DHT22;26917;52.328;20.878;2022-12-18T15:21:08;-3.20;99.90
18252;DHT22;26917;52.328;20.878;2022-12-18T15:23:48;-3.90;99.90
18252;DHT22;26917;52.328;20.878;2022-12-18T15:26:59;-3.90;99.90
18252;DHT22;26917;52.328;20.878;2022-12-18T15:30:03;-3.90;99.90
18252;DHT22;26917;52.328;20.878;2022-12-18T15:33:34;-3.90;99.90
18252;DHT22;26917;52.328;20.878;2022-12-18T15:36:16;-3.90;99.90
18252;DHT22;26917;52.328;20.878;2022-12-18T15:38:54;-3.80;99.90
18252;DHT22;26917;52.328;20.878;2022-12-18T15:46:01;-3.90;99.90
18252;DHT22;26917;52.328;20.878;2022-12-18T15:48:35;-3.80;99.90
18252;DHT22;26917;52.328;20.878;2022-12-18T15:56:54;-4.00;99.90
18252;DHT22;26917;52.328;20.878;2022-12-18T16:00:11;-3.90;99.90
18252;DHT22;26917;52.328;20.878;2022-12-18T16:08:39;-4.00;99.90
18252;DHT22;26917;52.328;20.878;2022-12-18T16:11:59;-3.90;99.90
18252;DHT22;26917;52.328;20.878;2022-12-18T16:15:10;-3.90;99.90
18252;DHT22;26917;52.328;20.878;2022-12-18T16:21:24;-3.80;99.90
18252;DHT22;26917;52.328;20.878;2022-12-18T16:24:37;-3.70;99.90
18252;DHT22;26917;52.328;20.878;2022-12-18T16:28:14;-3.80;99.90
18252;DHT22;26917;52.328;20.878;2022-12-18T17:09:04;-3.80;99.90
18252;DHT22;26917;52.328;20.878;2022-12-18T17:50:48;-3.80;99.90
18252;DHT22;26917;52.328;20.878;2022-12-18T18:01:01;-3.90;99.90
18252;DHT22;26917;52.328;20.878;2022-12-18T18:03:36;-4.00;99.90
18252;DHT22;26917;52.328;20.878;2022-12-18T20:17:02;-4.40;99.90
18252;DHT22;26917;52.328;20.878;2022-12-18T20:23:51;-4.60;99.90
18252;DHT22;26917;52.328;20.878;2022-12-18T20:26:25;-4.40;99.90
18252;DHT22;26917;52.328;20.878;2022-12-18T20:29:49;-4.50;99.90
18252;DHT22;26917;52.328;20.878;2022-12-18T20:41:09;-4.70;99.90
18252;DHT22;26917;52.328;20.878;2022-12-18T20:43:38;-3.80;99.90
18252;DHT22;26917;52.328;20.878;2022-12-18T20:55:02;-4.70;99.90
18252;DHT22;26917;52.328;20.878;2022-12-18T21:18:33;-4.60;99.90
18252;DHT22;26917;52.328;20.878;2022-12-18T21:52:40;-4.70;99.90
18252;DHT22;26917;52.328;20.878;2022-12-18T22:49:14;-4.90;99.90
18252;DHT22;26917;52.328;20.878;2022-12-18T23:15:07;-4.90;99.90
18252;DHT22;26917;52.328;20.878;2022-12-18T23:19:09;-4.90;99.90
